sensor_id;sensor_type;location;lat;lon;timestamp;P1;durP1;ratioP1;P2;durP2;ratioP2
23171;SDS011;11754;42.664;23.594;2023-02-01T00:01:13;10.70;;;7.13;;
23171;SDS011;11754;42.664;23.594;2023-02-01T00:03:39;10.23;;;6.80;;
23171;SDS011;11754;42.664;23.594;2023-02-01T00:06:04;11.15;;;7.72;;
23171;SDS011;11754;42.664;23.594;2023-02-01T00:08:30;15.88;;;10.32;;
23171;SDS011;11754;42.664;23.594;2023-02-01T00:11:02;13.73;;;9.20;;
23171;SDS011;11754;42.664;23.594;2023-02-01T00:13:30;14.02;;;9.68;;
23171;SDS011;11754;42.664;23.594;2023-02-01T00:18:46;13.18;;;9.40;;
23171;SDS011;11754;42.664;23.594;2023-02-01T00:21:14;11.43;;;8.82;;
23171;SDS011;11754;42.664;23.594;2023-02-01T00:23:41;14.38;;;9.68;;
23171;SDS011;11754;42.664;23.594;2023-02-01T00:26:07;12.00;;;8.77;;
23171;SDS011;11754;42.664;23.594;2023-02-01T00:28:38;11.13;;;8.05;;
23171;SDS011;11754;42.664;23.594;2023-02-01T00:31:04;12.07;;;10.43;;
23171;SDS011;11754;42.664;23.594;2023-02-01T00:33:30;12.70;;;8.10;;
23171;SDS011;11754;42.664;23.594;2023-02-01T00:36:00;13.18;;;9.35;;
23171;SDS011;11754;42.664;23.594;2023-02-01T00:38:28;11.45;;;8.68;;
23171;SDS011;11754;42.664;23.594;2023-02-01T00:40:54;12.25;;;7.90;;
23171;SDS011;11754;42.664;23.594;2023-02-01T00:45:51;12.25;;;7.93;;
23171;SDS011;11754;42.664;23.594;2023-02-01T00:48:16;11.52;;;8.20;;
23171;SDS011;11754;42.664;23.594;2023-02-01T00:50:42;11.63;;;8.43;;
23171;SDS011;11754;42.664;23.594;2023-02-01T00:53:08;10.57;;;7.80;;
23171;SDS011;11754;42.664;23.594;2023-02-01T00:55:35;9.73;;;7.75;;
23171;SDS011;11754;42.664;23.594;2023-02-01T00:58:00;10.38;;;8.00;;
23171;SDS011;11754;42.664;23.594;2023-02-01T01:00:26;10.73;;;8.15;;
23171;SDS011;11754;42.664;23.594;2023-02-01T01:02:51;9.60;;;7.88;;
23171;SDS011;11754;42.664;23.594;2023-02-01T01:05:16;11.43;;;8.48;;
23171;SDS011;11754;42.664;23.594;2023-02-01T01:07:42;9.70;;;8.23;;
23171;SDS011;11754;42.664;23.594;2023-02-01T01:10:07;13.57;;;8.48;;
23171;SDS011;11754;42.664;23.594;2023-02-01T01:12:33;10.52;;;7.97;;
23171;SDS011;11754;42.664;23.594;2023-02-01T01:14:58;12.13;;;8.13;;
23171;SDS011;11754;42.664;23.594;2023-02-01T01:17:24;10.65;;;7.93;;
23171;SDS011;11754;42.664;23.594;2023-02-01T01:19:49;13.25;;;8.15;;
23171;SDS011;11754;42.664;23.594;2023-02-01T01:22:14;9.23;;;7.63;;
23171;SDS011;11754;42.664;23.594;2023-02-01T01:24:40;14.45;;;8.63;;
23171;SDS011;11754;42.664;23.594;2023-02-01T01:27:05;12.52;;;8.57;;
23171;SDS011;11754;42.664;23.594;2023-02-01T01:29:30;10.10;;;8.02;;
23171;SDS011;11754;42.664;23.594;2023-02-01T01:31:56;12.27;;;9.10;;
23171;SDS011;11754;42.664;23.594;2023-02-01T01:34:21;9.25;;;7.80;;
23171;SDS011;11754;42.664;23.594;2023-02-01T01:36:47;9.80;;;7.53;;
23171;SDS011;11754;42.664;23.594;2023-02-01T01:39:12;11.13;;;7.28;;
23171;SDS011;11754;42.664;23.594;2023-02-01T01:41:37;11.48;;;7.35;;
23171;SDS011;11754;42.664;23.594;2023-02-01T01:44:04;10.00;;;7.60;;
23171;SDS011;11754;42.664;23.594;2023-02-01T01:46:32;16.17;;;7.63;;
23171;SDS011;11754;42.664;23.594;2023-02-01T01:49:20;10.35;;;7.30;;
23171;SDS011;11754;42.664;23.594;2023-02-01T01:54:26;12.15;;;6.80;;
23171;SDS011;11754;42.664;23.594;2023-02-01T01:57:00;9.27;;;6.95;;
23171;SDS011;11754;42.664;23.594;2023-02-01T01:59:29;9.80;;;6.95;;
23171;SDS011;11754;42.664;23.594;2023-02-01T02:01:57;9.15;;;6.57;;
23171;SDS011;11754;42.664;23.594;2023-02-01T02:04:23;12.25;;;5.63;;
23171;SDS011;11754;42.664;23.594;2023-02-01T02:06:54;11.38;;;6.10;;
23171;SDS011;11754;42.664;23.594;2023-02-01T02:09:24;7.70;;;5.40;;
23171;SDS011;11754;42.664;23.594;2023-02-01T02:11:49;8.93;;;5.78;;
23171;SDS011;11754;42.664;23.594;2023-02-01T02:14:15;8.93;;;6.03;;
23171;SDS011;11754;42.664;23.594;2023-02-01T02:28:30;9.68;;;5.63;;
23171;SDS011;11754;42.664;23.594;2023-02-01T02:34:31;9.05;;;5.93;;
23171;SDS011;11754;42.664;23.594;2023-02-01T02:40:06;10.18;;;5.85;;
23171;SDS011;11754;42.664;23.594;2023-02-01T02:45:51;11.15;;;5.55;;
23171;SDS011;11754;42.664;23.594;2023-02-01T02:54:33;10.05;;;6.07;;
23171;SDS011;11754;42.664;23.594;2023-02-01T02:57:13;9.63;;;5.65;;
23171;SDS011;11754;42.664;23.594;2023-02-01T03:00:19;8.77;;;5.88;;
23171;SDS011;11754;42.664;23.594;2023-02-01T03:03:05;9.25;;;6.05;;
23171;SDS011;11754;42.664;23.594;2023-02-01T03:05:50;10.18;;;6.00;;
23171;SDS011;11754;42.664;23.594;2023-02-01T03:08:22;11.15;;;5.68;;
23171;SDS011;11754;42.664;23.594;2023-02-01T03:13:27;9.50;;;5.93;;
23171;SDS011;11754;42.664;23.594;2023-02-01T03:16:17;10.35;;;5.88;;
23171;SDS011;11754;42.664;23.594;2023-02-01T03:19:01;21.17;;;11.35;;
23171;SDS011;11754;42.664;23.594;2023-02-01T03:21:35;20.63;;;12.80;;
23171;SDS011;11754;42.664;23.594;2023-02-01T03:24:07;11.07;;;6.00;;
23171;SDS011;11754;42.664;23.594;2023-02-01T03:26:37;9.68;;;6.60;;
23171;SDS011;11754;42.664;23.594;2023-02-01T03:29:11;8.77;;;5.82;;
23171;SDS011;11754;42.664;23.594;2023-02-01T03:31:40;8.38;;;5.57;;
23171;SDS011;11754;42.664;23.594;2023-02-01T03:34:06;13.07;;;6.22;;
23171;SDS011;11754;42.664;23.594;2023-02-01T03:36:40;8.90;;;5.80;;
23171;SDS011;11754;42.664;23.594;2023-02-01T03:39:15;15.13;;;6.40;;
23171;SDS011;11754;42.664;23.594;2023-02-01T03:41:47;7.65;;;5.28;;
23171;SDS011;11754;42.664;23.594;2023-02-01T03:44:22;10.20;;;5.53;;
23171;SDS011;11754;42.664;23.594;2023-02-01T03:46:52;8.25;;;5.30;;
23171;SDS011;11754;42.664;23.594;2023-02-01T03:52:10;8.60;;;4.88;;
23171;SDS011;11754;42.664;23.594;2023-02-01T03:54:40;9.20;;;4.80;;
23171;SDS011;11754;42.664;23.594;2023-02-01T03:57:08;5.95;;;4.53;;
23171;SDS011;11754;42.664;23.594;2023-02-01T03:59:40;10.27;;;5.50;;
23171;SDS011;11754;42.664;23.594;2023-02-01T04:02:06;9.93;;;5.40;;
23171;SDS011;11754;42.664;23.594;2023-02-01T04:04:32;11.55;;;6.13;;
23171;SDS011;11754;42.664;23.594;2023-02-01T04:06:59;8.68;;;5.03;;
23171;SDS011;11754;42.664;23.594;2023-02-01T04:09:24;11.73;;;5.10;;
23171;SDS011;11754;42.664;23.594;2023-02-01T04:11:50;9.57;;;5.78;;
23171;SDS011;11754;42.664;23.594;2023-02-01T04:14:15;9.60;;;5.65;;
23171;SDS011;11754;42.664;23.594;2023-02-01T04:16:40;7.90;;;5.25;;
23171;SDS011;11754;42.664;23.594;2023-02-01T04:19:06;7.72;;;5.07;;
23171;SDS011;11754;42.664;23.594;2023-02-01T04:21:32;10.80;;;5.45;;
23171;SDS011;11754;42.664;23.594;2023-02-01T04:23:57;8.38;;;5.40;;
23171;SDS011;11754;42.664;23.594;2023-02-01T04:26:23;11.10;;;5.43;;
23171;SDS011;11754;42.664;23.594;2023-02-01T04:28:48;8.90;;;4.82;;
23171;SDS011;11754;42.664;23.594;2023-02-01T04:31:14;11.57;;;4.82;;
23171;SDS011;11754;42.664;23.594;2023-02-01T04:33:40;32.47;;;24.02;;
23171;SDS011;11754;42.664;23.594;2023-02-01T04:36:06;26.92;;;20.95;;
23171;SDS011;11754;42.664;23.594;2023-02-01T04:38:31;10.63;;;5.80;;
23171;SDS011;11754;42.664;23.594;2023-02-01T04:40:57;9.63;;;5.65;;
23171;SDS011;11754;42.664;23.594;2023-02-01T04:43:23;9.68;;;4.90;;
23171;SDS011;11754;42.664;23.594;2023-02-01T04:45:48;9.80;;;5.90;;
23171;SDS011;11754;42.664;23.594;2023-02-01T04:48:15;13.32;;;7.03;;
23171;SDS011;11754;42.664;23.594;2023-02-01T04:50:41;28.73;;;11.68;;
23171;SDS011;11754;42.664;23.594;2023-02-01T04:53:07;22.10;;;11.75;;
23171;SDS011;11754;42.664;23.594;2023-02-01T04:55:32;13.98;;;7.32;;
23171;SDS011;11754;42.664;23.594;2023-02-01T04:57:58;11.52;;;6.13;;
23171;SDS011;11754;42.664;23.594;2023-02-01T05:00:23;9.40;;;5.43;;
23171;SDS011;11754;42.664;23.594;2023-02-01T05:02:49;6.97;;;5.05;;
23171;SDS011;11754;42.664;23.594;2023-02-01T05:05:15;10.23;;;4.68;;
23171;SDS011;11754;42.664;23.594;2023-02-01T05:07:40;8.05;;;5.00;;
23171;SDS011;11754;42.664;23.594;2023-02-01T05:10:05;8.35;;;5.00;;
23171;SDS011;11754;42.664;23.594;2023-02-01T05:12:31;9.02;;;4.90;;
23171;SDS011;11754;42.664;23.594;2023-02-01T05:15:15;7.05;;;4.75;;
23171;SDS011;11754;42.664;23.594;2023-02-01T05:17:41;7.90;;;5.25;;
23171;SDS011;11754;42.664;23.594;2023-02-01T05:20:07;10.90;;;5.40;;
23171;SDS011;11754;42.664;23.594;2023-02-01T05:22:34;9.80;;;5.45;;
23171;SDS011;11754;42.664;23.594;2023-02-01T05:24:59;8.80;;;5.35;;
23171;SDS011;11754;42.664;23.594;2023-02-01T05:27:24;8.93;;;5.88;;
23171;SDS011;11754;42.664;23.594;2023-02-01T05:29:50;9.30;;;5.95;;
23171;SDS011;11754;42.664;23.594;2023-02-01T05:32:15;11.20;;;7.10;;
23171;SDS011;11754;42.664;23.594;2023-02-01T05:34:40;11.27;;;6.35;;
23171;SDS011;11754;42.664;23.594;2023-02-01T05:37:06;11.18;;;6.18;;
23171;SDS011;11754;42.664;23.594;2023-02-01T05:39:31;8.93;;;6.40;;
23171;SDS011;11754;42.664;23.594;2023-02-01T05:41:56;10.18;;;5.68;;
23171;SDS011;11754;42.664;23.594;2023-02-01T05:44:22;10.38;;;5.82;;
23171;SDS011;11754;42.664;23.594;2023-02-01T05:46:47;12.45;;;6.00;;
23171;SDS011;11754;42.664;23.594;2023-02-01T05:49:12;10.77;;;6.32;;
23171;SDS011;11754;42.664;23.594;2023-02-01T05:51:38;11.93;;;6.35;;
23171;SDS011;11754;42.664;23.594;2023-02-01T05:54:03;11.73;;;7.25;;
23171;SDS011;11754;42.664;23.594;2023-02-01T05:56:29;9.50;;;6.40;;
23171;SDS011;11754;42.664;23.594;2023-02-01T05:58:54;11.45;;;7.00;;
23171;SDS011;11754;42.664;23.594;2023-02-01T06:01:19;11.68;;;7.85;;
23171;SDS011;11754;42.664;23.594;2023-02-01T06:03:45;14.45;;;8.07;;
23171;SDS011;11754;42.664;23.594;2023-02-01T06:06:10;12.52;;;7.47;;
23171;SDS011;11754;42.664;23.594;2023-02-01T06:08:35;13.80;;;7.50;;
23171;SDS011;11754;42.664;23.594;2023-02-01T06:11:02;12.68;;;7.03;;
23171;SDS011;11754;42.664;23.594;2023-02-01T06:13:29;14.73;;;7.70;;
23171;SDS011;11754;42.664;23.594;2023-02-01T06:15:55;14.27;;;7.53;;
23171;SDS011;11754;42.664;23.594;2023-02-01T06:18:22;11.85;;;7.18;;
23171;SDS011;11754;42.664;23.594;2023-02-01T06:20:52;51.55;;;30.15;;
23171;SDS011;11754;42.664;23.594;2023-02-01T06:23:18;22.10;;;15.57;;
23171;SDS011;11754;42.664;23.594;2023-02-01T06:25:44;15.57;;;11.00;;
23171;SDS011;11754;42.664;23.594;2023-02-01T06:28:10;16.90;;;8.45;;
23171;SDS011;11754;42.664;23.594;2023-02-01T06:30:35;9.43;;;6.80;;
23171;SDS011;11754;42.664;23.594;2023-02-01T06:33:00;15.43;;;7.30;;
23171;SDS011;11754;42.664;23.594;2023-02-01T06:35:26;14.48;;;7.97;;
23171;SDS011;11754;42.664;23.594;2023-02-01T06:37:51;15.38;;;8.60;;
23171;SDS011;11754;42.664;23.594;2023-02-01T06:40:17;16.35;;;7.85;;
23171;SDS011;11754;42.664;23.594;2023-02-01T06:42:42;15.15;;;8.43;;
23171;SDS011;11754;42.664;23.594;2023-02-01T06:45:07;18.33;;;8.95;;
23171;SDS011;11754;42.664;23.594;2023-02-01T06:47:33;19.08;;;10.52;;
23171;SDS011;11754;42.664;23.594;2023-02-01T06:49:59;19.23;;;10.68;;
23171;SDS011;11754;42.664;23.594;2023-02-01T06:52:24;14.45;;;9.10;;
23171;SDS011;11754;42.664;23.594;2023-02-01T06:54:49;15.77;;;8.60;;
23171;SDS011;11754;42.664;23.594;2023-02-01T06:57:15;18.90;;;8.38;;
23171;SDS011;11754;42.664;23.594;2023-02-01T06:59:40;18.58;;;7.88;;
23171;SDS011;11754;42.664;23.594;2023-02-01T07:02:08;16.35;;;8.35;;
23171;SDS011;11754;42.664;23.594;2023-02-01T07:04:37;13.70;;;7.20;;
23171;SDS011;11754;42.664;23.594;2023-02-01T07:07:02;11.32;;;7.28;;
23171;SDS011;11754;42.664;23.594;2023-02-01T07:09:28;15.77;;;8.05;;
23171;SDS011;11754;42.664;23.594;2023-02-01T07:11:53;12.82;;;7.50;;
23171;SDS011;11754;42.664;23.594;2023-02-01T07:14:18;14.50;;;7.35;;
23171;SDS011;11754;42.664;23.594;2023-02-01T07:16:44;15.88;;;10.88;;
23171;SDS011;11754;42.664;23.594;2023-02-01T07:19:09;14.15;;;7.28;;
23171;SDS011;11754;42.664;23.594;2023-02-01T07:21:35;11.27;;;6.63;;
23171;SDS011;11754;42.664;23.594;2023-02-01T07:24:00;13.60;;;8.40;;
23171;SDS011;11754;42.664;23.594;2023-02-01T07:26:25;16.00;;;9.77;;
23171;SDS011;11754;42.664;23.594;2023-02-01T07:28:51;18.95;;;10.55;;
23171;SDS011;11754;42.664;23.594;2023-02-01T07:31:17;56.28;;;26.80;;
23171;SDS011;11754;42.664;23.594;2023-02-01T07:33:45;34.15;;;18.92;;
23171;SDS011;11754;42.664;23.594;2023-02-01T07:36:12;33.38;;;18.10;;
23171;SDS011;11754;42.664;23.594;2023-02-01T07:38:39;33.60;;;17.98;;
23171;SDS011;11754;42.664;23.594;2023-02-01T07:41:05;26.25;;;15.23;;
23171;SDS011;11754;42.664;23.594;2023-02-01T07:43:31;37.72;;;23.23;;
23171;SDS011;11754;42.664;23.594;2023-02-01T07:45:58;52.30;;;29.42;;
23171;SDS011;11754;42.664;23.594;2023-02-01T07:48:24;77.90;;;42.13;;
23171;SDS011;11754;42.664;23.594;2023-02-01T07:51:10;42.40;;;25.67;;
23171;SDS011;11754;42.664;23.594;2023-02-01T07:53:40;22.48;;;12.68;;
23171;SDS011;11754;42.664;23.594;2023-02-01T07:56:10;18.30;;;10.07;;
23171;SDS011;11754;42.664;23.594;2023-02-01T07:58:37;19.60;;;11.10;;
23171;SDS011;11754;42.664;23.594;2023-02-01T08:01:03;18.55;;;11.38;;
23171;SDS011;11754;42.664;23.594;2023-02-01T08:03:50;22.38;;;9.95;;
23171;SDS011;11754;42.664;23.594;2023-02-01T08:06:18;13.85;;;7.78;;
23171;SDS011;11754;42.664;23.594;2023-02-01T08:08:47;13.82;;;8.20;;
23171;SDS011;11754;42.664;23.594;2023-02-01T08:11:14;13.15;;;8.07;;
23171;SDS011;11754;42.664;23.594;2023-02-01T08:13:40;14.27;;;7.03;;
23171;SDS011;11754;42.664;23.594;2023-02-01T08:16:06;11.95;;;6.43;;
23171;SDS011;11754;42.664;23.594;2023-02-01T08:18:34;14.63;;;6.93;;
23171;SDS011;11754;42.664;23.594;2023-02-01T08:21:10;10.48;;;5.97;;
23171;SDS011;11754;42.664;23.594;2023-02-01T08:23:44;12.30;;;6.30;;
23171;SDS011;11754;42.664;23.594;2023-02-01T08:26:11;13.02;;;5.70;;
23171;SDS011;11754;42.664;23.594;2023-02-01T08:28:40;8.13;;;4.57;;
23171;SDS011;11754;42.664;23.594;2023-02-01T08:31:11;17.58;;;5.22;;
23171;SDS011;11754;42.664;23.594;2023-02-01T08:33:39;13.43;;;5.70;;
23171;SDS011;11754;42.664;23.594;2023-02-01T08:36:06;9.48;;;4.40;;
23171;SDS011;11754;42.664;23.594;2023-02-01T08:38:34;7.25;;;3.95;;
23171;SDS011;11754;42.664;23.594;2023-02-01T08:41:09;11.35;;;4.13;;
23171;SDS011;11754;42.664;23.594;2023-02-01T08:43:36;8.48;;;3.90;;
23171;SDS011;11754;42.664;23.594;2023-02-01T08:46:02;7.45;;;3.88;;
23171;SDS011;11754;42.664;23.594;2023-02-01T08:48:29;7.72;;;3.92;;
23171;SDS011;11754;42.664;23.594;2023-02-01T08:50:55;8.32;;;3.95;;
23171;SDS011;11754;42.664;23.594;2023-02-01T08:53:20;6.97;;;3.78;;
23171;SDS011;11754;42.664;23.594;2023-02-01T08:55:46;8.02;;;3.80;;
23171;SDS011;11754;42.664;23.594;2023-02-01T08:58:12;10.00;;;3.47;;
23171;SDS011;11754;42.664;23.594;2023-02-01T09:00:38;6.57;;;3.17;;
23171;SDS011;11754;42.664;23.594;2023-02-01T09:03:05;9.30;;;3.17;;
23171;SDS011;11754;42.664;23.594;2023-02-01T09:05:30;8.48;;;3.58;;
23171;SDS011;11754;42.664;23.594;2023-02-01T09:07:55;7.32;;;3.60;;
23171;SDS011;11754;42.664;23.594;2023-02-01T09:10:21;9.95;;;4.13;;
23171;SDS011;11754;42.664;23.594;2023-02-01T09:12:46;8.55;;;4.25;;
23171;SDS011;11754;42.664;23.594;2023-02-01T09:15:12;9.07;;;3.88;;
23171;SDS011;11754;42.664;23.594;2023-02-01T09:17:37;8.88;;;4.03;;
23171;SDS011;11754;42.664;23.594;2023-02-01T09:20:03;12.52;;;4.00;;
23171;SDS011;11754;42.664;23.594;2023-02-01T09:22:29;9.07;;;4.05;;
23171;SDS011;11754;42.664;23.594;2023-02-01T09:24:54;7.55;;;3.88;;
23171;SDS011;11754;42.664;23.594;2023-02-01T09:27:20;11.63;;;4.13;;
23171;SDS011;11754;42.664;23.594;2023-02-01T09:29:45;12.57;;;4.82;;
23171;SDS011;11754;42.664;23.594;2023-02-01T09:32:17;8.43;;;3.87;;
23171;SDS011;11754;42.664;23.594;2023-02-01T09:34:42;10.68;;;3.70;;
23171;SDS011;11754;42.664;23.594;2023-02-01T09:37:08;7.03;;;4.00;;
23171;SDS011;11754;42.664;23.594;2023-02-01T09:39:33;11.43;;;4.38;;
23171;SDS011;11754;42.664;23.594;2023-02-01T09:44:43;9.85;;;4.15;;
23171;SDS011;11754;42.664;23.594;2023-02-01T09:47:19;10.75;;;4.30;;
23171;SDS011;11754;42.664;23.594;2023-02-01T09:50:04;11.75;;;4.97;;
23171;SDS011;11754;42.664;23.594;2023-02-01T09:52:58;9.10;;;4.45;;
23171;SDS011;11754;42.664;23.594;2023-02-01T09:55:38;14.25;;;5.60;;
23171;SDS011;11754;42.664;23.594;2023-02-01T09:58:20;10.88;;;5.07;;
23171;SDS011;11754;42.664;23.594;2023-02-01T10:00:57;15.88;;;5.00;;
23171;SDS011;11754;42.664;23.594;2023-02-01T10:03:32;9.52;;;4.07;;
23171;SDS011;11754;42.664;23.594;2023-02-01T10:14:03;12.82;;;4.53;;
23171;SDS011;11754;42.664;23.594;2023-02-01T10:16:50;11.32;;;3.47;;
23171;SDS011;11754;42.664;23.594;2023-02-01T10:19:29;8.85;;;3.35;;
23171;SDS011;11754;42.664;23.594;2023-02-01T10:22:04;6.57;;;3.58;;
23171;SDS011;11754;42.664;23.594;2023-02-01T10:27:17;4.78;;;2.28;;
23171;SDS011;11754;42.664;23.594;2023-02-01T10:29:47;3.97;;;1.80;;
23171;SDS011;11754;42.664;23.594;2023-02-01T10:32:18;4.80;;;2.45;;
23171;SDS011;11754;42.664;23.594;2023-02-01T10:34:48;5.43;;;1.92;;
23171;SDS011;11754;42.664;23.594;2023-02-01T10:37:25;6.70;;;1.90;;
23171;SDS011;11754;42.664;23.594;2023-02-01T10:39:56;6.82;;;2.13;;
23171;SDS011;11754;42.664;23.594;2023-02-01T10:42:26;9.15;;;2.28;;
23171;SDS011;11754;42.664;23.594;2023-02-01T10:44:54;5.57;;;2.00;;
23171;SDS011;11754;42.664;23.594;2023-02-01T10:47:23;6.93;;;2.03;;
23171;SDS011;11754;42.664;23.594;2023-02-01T10:52:31;6.45;;;2.58;;
23171;SDS011;11754;42.664;23.594;2023-02-01T10:57:55;5.97;;;2.17;;
23171;SDS011;11754;42.664;23.594;2023-02-01T11:00:22;3.72;;;1.90;;
23171;SDS011;11754;42.664;23.594;2023-02-01T11:02:47;4.20;;;1.92;;
23171;SDS011;11754;42.664;23.594;2023-02-01T11:05:15;8.00;;;2.40;;
23171;SDS011;11754;42.664;23.594;2023-02-01T11:07:46;5.57;;;2.35;;
23171;SDS011;11754;42.664;23.594;2023-02-01T11:13:02;8.55;;;5.07;;
23171;SDS011;11754;42.664;23.594;2023-02-01T11:15:28;6.63;;;2.35;;
23171;SDS011;11754;42.664;23.594;2023-02-01T11:17:54;15.65;;;6.53;;
23171;SDS011;11754;42.664;23.594;2023-02-01T11:20:39;8.73;;;4.32;;
23171;SDS011;11754;42.664;23.594;2023-02-01T11:23:16;25.90;;;10.63;;
23171;SDS011;11754;42.664;23.594;2023-02-01T11:25:51;16.85;;;6.15;;
23171;SDS011;11754;42.664;23.594;2023-02-01T11:28:19;19.20;;;7.07;;
23171;SDS011;11754;42.664;23.594;2023-02-01T11:30:47;41.80;;;14.23;;
23171;SDS011;11754;42.664;23.594;2023-02-01T11:33:14;33.40;;;12.32;;
23171;SDS011;11754;42.664;23.594;2023-02-01T11:35:42;32.63;;;11.93;;
23171;SDS011;11754;42.664;23.594;2023-02-01T11:41:10;6.80;;;2.35;;
23171;SDS011;11754;42.664;23.594;2023-02-01T11:43:55;7.70;;;4.13;;
23171;SDS011;11754;42.664;23.594;2023-02-01T11:46:32;7.13;;;2.13;;
23171;SDS011;11754;42.664;23.594;2023-02-01T11:49:19;7.65;;;3.05;;
23171;SDS011;11754;42.664;23.594;2023-02-01T11:54:25;16.50;;;5.65;;
23171;SDS011;11754;42.664;23.594;2023-02-01T11:57:25;3.83;;;1.75;;
23171;SDS011;11754;42.664;23.594;2023-02-01T12:05:48;6.05;;;1.80;;
23171;SDS011;11754;42.664;23.594;2023-02-01T12:08:24;5.45;;;2.13;;
23171;SDS011;11754;42.664;23.594;2023-02-01T12:13:36;3.83;;;1.30;;
23171;SDS011;11754;42.664;23.594;2023-02-01T12:21:23;2.67;;;1.65;;
23171;SDS011;11754;42.664;23.594;2023-02-01T12:24:07;4.10;;;1.50;;
23171;SDS011;11754;42.664;23.594;2023-02-01T12:38:49;5.07;;;1.50;;
23171;SDS011;11754;42.664;23.594;2023-02-01T12:41:32;5.25;;;1.70;;
23171;SDS011;11754;42.664;23.594;2023-02-01T12:46:58;4.65;;;1.63;;
23171;SDS011;11754;42.664;23.594;2023-02-01T12:49:38;4.78;;;1.67;;
23171;SDS011;11754;42.664;23.594;2023-02-01T12:52:16;2.25;;;1.05;;
23171;SDS011;11754;42.664;23.594;2023-02-01T12:57:55;6.38;;;1.90;;
23171;SDS011;11754;42.664;23.594;2023-02-01T13:00:30;5.80;;;3.20;;
23171;SDS011;11754;42.664;23.594;2023-02-01T13:03:05;3.90;;;1.85;;
23171;SDS011;11754;42.664;23.594;2023-02-01T13:05:49;2.08;;;1.10;;
23171;SDS011;11754;42.664;23.594;2023-02-01T13:08:21;2.33;;;1.30;;
23171;SDS011;11754;42.664;23.594;2023-02-01T13:13:29;6.63;;;1.90;;
23171;SDS011;11754;42.664;23.594;2023-02-01T13:16:12;4.28;;;1.27;;
23171;SDS011;11754;42.664;23.594;2023-02-01T13:18:39;4.03;;;1.42;;
23171;SDS011;11754;42.664;23.594;2023-02-01T13:21:10;4.47;;;1.77;;
23171;SDS011;11754;42.664;23.594;2023-02-01T13:26:08;3.72;;;1.30;;
23171;SDS011;11754;42.664;23.594;2023-02-01T13:31:33;2.22;;;1.20;;
23171;SDS011;11754;42.664;23.594;2023-02-01T13:42:47;8.95;;;1.77;;
23171;SDS011;11754;42.664;23.594;2023-02-01T13:45:15;4.47;;;1.67;;
23171;SDS011;11754;42.664;23.594;2023-02-01T13:47:47;5.35;;;1.67;;
23171;SDS011;11754;42.664;23.594;2023-02-01T13:52:58;4.28;;;1.70;;
23171;SDS011;11754;42.664;23.594;2023-02-01T13:55:29;2.42;;;1.38;;
23171;SDS011;11754;42.664;23.594;2023-02-01T14:09:05;4.82;;;1.90;;
23171;SDS011;11754;42.664;23.594;2023-02-01T14:11:43;4.97;;;2.35;;
23171;SDS011;11754;42.664;23.594;2023-02-01T14:16:42;5.45;;;2.35;;
23171;SDS011;11754;42.664;23.594;2023-02-01T14:19:29;6.07;;;2.20;;
23171;SDS011;11754;42.664;23.594;2023-02-01T14:21:57;6.78;;;1.90;;
23171;SDS011;11754;42.664;23.594;2023-02-01T14:24:50;7.60;;;2.08;;
23171;SDS011;11754;42.664;23.594;2023-02-01T14:27:20;5.43;;;2.20;;
23171;SDS011;11754;42.664;23.594;2023-02-01T14:29:51;3.40;;;1.63;;
23171;SDS011;11754;42.664;23.594;2023-02-01T14:32:26;4.38;;;1.70;;
23171;SDS011;11754;42.664;23.594;2023-02-01T14:34:59;3.72;;;1.75;;
23171;SDS011;11754;42.664;23.594;2023-02-01T14:37:28;3.42;;;1.80;;
23171;SDS011;11754;42.664;23.594;2023-02-01T14:50:25;8.02;;;2.20;;
23171;SDS011;11754;42.664;23.594;2023-02-01T14:58:13;7.18;;;2.30;;
23171;SDS011;11754;42.664;23.594;2023-02-01T15:01:03;10.85;;;3.50;;
23171;SDS011;11754;42.664;23.594;2023-02-01T15:03:42;4.63;;;2.22;;
23171;SDS011;11754;42.664;23.594;2023-02-01T15:08:49;4.10;;;2.22;;
23171;SDS011;11754;42.664;23.594;2023-02-01T15:11:19;8.40;;;2.22;;
23171;SDS011;11754;42.664;23.594;2023-02-01T15:13:51;5.40;;;2.30;;
23171;SDS011;11754;42.664;23.594;2023-02-01T15:16:19;9.45;;;2.53;;
23171;SDS011;11754;42.664;23.594;2023-02-01T15:18:47;5.13;;;2.53;;
23171;SDS011;11754;42.664;23.594;2023-02-01T15:21:22;5.55;;;1.95;;
23171;SDS011;11754;42.664;23.594;2023-02-01T15:23:50;6.72;;;2.28;;
23171;SDS011;11754;42.664;23.594;2023-02-01T15:26:28;5.45;;;2.67;;
23171;SDS011;11754;42.664;23.594;2023-02-01T15:28:56;6.40;;;2.60;;
23171;SDS011;11754;42.664;23.594;2023-02-01T15:31:39;4.68;;;2.67;;
23171;SDS011;11754;42.664;23.594;2023-02-01T15:34:07;7.68;;;3.00;;
23171;SDS011;11754;42.664;23.594;2023-02-01T15:36:33;6.30;;;2.55;;
23171;SDS011;11754;42.664;23.594;2023-02-01T15:39:19;6.75;;;2.67;;
23171;SDS011;11754;42.664;23.594;2023-02-01T15:41:51;6.22;;;2.90;;
23171;SDS011;11754;42.664;23.594;2023-02-01T15:46:52;6.53;;;3.50;;
23171;SDS011;11754;42.664;23.594;2023-02-01T15:49:23;6.95;;;3.33;;
23171;SDS011;11754;42.664;23.594;2023-02-01T15:51:50;9.25;;;3.60;;
23171;SDS011;11754;42.664;23.594;2023-02-01T15:54:17;8.20;;;3.63;;
23171;SDS011;11754;42.664;23.594;2023-02-01T15:56:54;6.93;;;3.75;;
23171;SDS011;11754;42.664;23.594;2023-02-01T15:59:22;7.40;;;4.03;;
23171;SDS011;11754;42.664;23.594;2023-02-01T16:04:19;8.43;;;4.20;;
23171;SDS011;11754;42.664;23.594;2023-02-01T16:06:48;19.58;;;9.68;;
23171;SDS011;11754;42.664;23.594;2023-02-01T16:09:14;24.42;;;11.43;;
23171;SDS011;11754;42.664;23.594;2023-02-01T16:11:48;10.85;;;5.90;;
23171;SDS011;11754;42.664;23.594;2023-02-01T16:14:17;8.70;;;4.30;;
23171;SDS011;11754;42.664;23.594;2023-02-01T16:16:42;9.63;;;4.28;;
23171;SDS011;11754;42.664;23.594;2023-02-01T16:19:08;9.50;;;5.15;;
23171;SDS011;11754;42.664;23.594;2023-02-01T16:21:33;11.25;;;6.03;;
23171;SDS011;11754;42.664;23.594;2023-02-01T16:23:59;11.38;;;5.22;;
23171;SDS011;11754;42.664;23.594;2023-02-01T16:26:28;14.10;;;4.70;;
23171;SDS011;11754;42.664;23.594;2023-02-01T16:28:56;11.15;;;4.82;;
23171;SDS011;11754;42.664;23.594;2023-02-01T16:31:23;9.93;;;4.95;;
23171;SDS011;11754;42.664;23.594;2023-02-01T16:33:52;17.38;;;9.52;;
23171;SDS011;11754;42.664;23.594;2023-02-01T16:36:18;21.17;;;12.50;;
23171;SDS011;11754;42.664;23.594;2023-02-01T16:38:44;21.55;;;10.55;;
23171;SDS011;11754;42.664;23.594;2023-02-01T16:41:15;15.30;;;7.82;;
23171;SDS011;11754;42.664;23.594;2023-02-01T16:43:43;12.15;;;7.03;;
23171;SDS011;11754;42.664;23.594;2023-02-01T16:46:12;15.00;;;7.40;;
23171;SDS011;11754;42.664;23.594;2023-02-01T16:48:40;17.50;;;8.48;;
23171;SDS011;11754;42.664;23.594;2023-02-01T16:51:09;15.25;;;7.22;;
23171;SDS011;11754;42.664;23.594;2023-02-01T16:53:36;14.30;;;7.00;;
23171;SDS011;11754;42.664;23.594;2023-02-01T16:56:04;13.20;;;7.03;;
23171;SDS011;11754;42.664;23.594;2023-02-01T16:58:37;14.80;;;6.45;;
23171;SDS011;11754;42.664;23.594;2023-02-01T17:01:06;19.75;;;11.55;;
23171;SDS011;11754;42.664;23.594;2023-02-01T17:03:31;17.73;;;9.00;;
23171;SDS011;11754;42.664;23.594;2023-02-01T17:05:57;16.80;;;7.28;;
23171;SDS011;11754;42.664;23.594;2023-02-01T17:08:36;11.43;;;5.88;;
23171;SDS011;11754;42.664;23.594;2023-02-01T17:11:05;11.38;;;6.57;;
23171;SDS011;11754;42.664;23.594;2023-02-01T17:13:31;11.25;;;6.53;;
23171;SDS011;11754;42.664;23.594;2023-02-01T17:18:42;46.78;;;22.35;;